sensor_id;sensor_type;location;lat;lon;timestamp;temperature;humidity
13336;DHT22;6737;51.480;11.962;2024-01-07T00:01:48;1.10;99.90
13336;DHT22;6737;51.480;11.962;2024-01-07T00:04:15;1.10;99.90
13336;DHT22;6737;51.480;11.962;2024-01-07T00:06:42;1.10;99.90
13336;DHT22;6737;51.480;11.962;2024-01-07T00:09:08;1.10;99.90
13336;DHT22;6737;51.480;11.962;2024-01-07T00:11:33;1.20;99.90
13336;DHT22;6737;51.480;11.962;2024-01-07T00:13:59;1.20;99.90
13336;DHT22;6737;51.480;11.962;2024-01-07T00:16:25;1.30;99.90
13336;DHT22;6737;51.480;11.962;2024-01-07T00:18:51;1.20;99.90
13336;DHT22;6737;51.480;11.962;2024-01-07T00:21:16;1.00;99.90
13336;DHT22;6737;51.480;11.962;2024-01-07T00:23:42;1.10;99.90
13336;DHT22;6737;51.480;11.962;2024-01-07T00:26:09;1.20;99.90
13336;DHT22;6737;51.480;11.962;2024-01-07T00:28:35;1.10;99.90
13336;DHT22;6737;51.480;11.962;2024-01-07T00:31:01;1.10;99.90
13336;DHT22;6737;51.480;11.962;2024-01-07T00:33:26;1.10;99.90
13336;DHT22;6737;51.480;11.962;2024-01-07T00:35:52;1.00;99.90
13336;DHT22;6737;51.480;11.962;2024-01-07T00:38:18;1.00;99.90
13336;DHT22;6737;51.480;11.962;2024-01-07T00:40:44;0.80;99.90
13336;DHT22;6737;51.480;11.962;2024-01-07T00:43:10;0.90;99.90
13336;DHT22;6737;51.480;11.962;2024-01-07T00:45:36;1.00;99.90
13336;DHT22;6737;51.480;11.962;2024-01-07T00:48:02;0.80;99.90
13336;DHT22;6737;51.480;11.962;2024-01-07T00:50:28;0.80;99.90
13336;DHT22;6737;51.480;11.962;2024-01-07T00:52:54;0.90;99.90
13336;DHT22;6737;51.480;11.962;2024-01-07T00:55:19;0.90;99.90
13336;DHT22;6737;51.480;11.962;2024-01-07T00:57:48;0.90;99.90
13336;DHT22;6737;51.480;11.962;2024-01-07T01:00:13;0.90;99.90
13336;DHT22;6737;51.480;11.962;2024-01-07T01:02:39;0.90;99.90
13336;DHT22;6737;51.480;11.962;2024-01-07T01:05:05;0.90;99.90
13336;DHT22;6737;51.480;11.962;2024-01-07T01:07:31;0.80;99.90
13336;DHT22;6737;51.480;11.962;2024-01-07T01:09:58;0.70;99.90
13336;DHT22;6737;51.480;11.962;2024-01-07T01:12:24;0.70;99.90
13336;DHT22;6737;51.480;11.962;2024-01-07T01:14:50;0.70;99.90
13336;DHT22;6737;51.480;11.962;2024-01-07T01:17:16;0.80;99.90
13336;DHT22;6737;51.480;11.962;2024-01-07T01:19:42;0.80;99.90
13336;DHT22;6737;51.480;11.962;2024-01-07T01:22:07;0.80;99.90
13336;DHT22;6737;51.480;11.962;2024-01-07T01:24:33;0.80;99.90
13336;DHT22;6737;51.480;11.962;2024-01-07T01:26:59;0.60;99.90
13336;DHT22;6737;51.480;11.962;2024-01-07T01:29:25;0.50;99.90
13336;DHT22;6737;51.480;11.962;2024-01-07T01:31:51;0.70;99.90
13336;DHT22;6737;51.480;11.962;2024-01-07T01:34:17;0.60;99.90
13336;DHT22;6737;51.480;11.962;2024-01-07T01:36:43;0.60;99.90
13336;DHT22;6737;51.480;11.962;2024-01-07T01:39:08;0.50;99.90
13336;DHT22;6737;51.480;11.962;2024-01-07T01:41:34;0.60;99.90
13336;DHT22;6737;51.480;11.962;2024-01-07T01:44:01;0.60;99.90
13336;DHT22;6737;51.480;11.962;2024-01-07T01:46:28;0.50;99.90
13336;DHT22;6737;51.480;11.962;2024-01-07T01:48:54;0.50;99.90
13336;DHT22;6737;51.480;11.962;2024-01-07T01:51:21;0.50;99.90
13336;DHT22;6737;51.480;11.962;2024-01-07T01:53:47;0.60;99.90
13336;DHT22;6737;51.480;11.962;2024-01-07T01:56:17;0.70;99.90
13336;DHT22;6737;51.480;11.962;2024-01-07T01:58:44;0.70;99.90
13336;DHT22;6737;51.480;11.962;2024-01-07T02:01:10;0.70;99.90
13336;DHT22;6737;51.480;11.962;2024-01-07T02:03:36;0.50;99.90
13336;DHT22;6737;51.480;11.962;2024-01-07T02:06:02;0.40;99.90
13336;DHT22;6737;51.480;11.962;2024-01-07T02:08:28;0.40;99.90
13336;DHT22;6737;51.480;11.962;2024-01-07T02:10:55;0.50;99.90
13336;DHT22;6737;51.480;11.962;2024-01-07T02:13:21;0.60;99.90
13336;DHT22;6737;51.480;11.962;2024-01-07T02:15:47;0.50;99.90
13336;DHT22;6737;51.480;11.962;2024-01-07T02:18:12;0.50;99.90
13336;DHT22;6737;51.480;11.962;2024-01-07T02:20:38;0.50;99.90
13336;DHT22;6737;51.480;11.962;2024-01-07T02:23:04;0.50;99.90
13336;DHT22;6737;51.480;11.962;2024-01-07T02:25:37;0.50;99.90
13336;DHT22;6737;51.480;11.962;2024-01-07T02:28:04;0.30;99.90
13336;DHT22;6737;51.480;11.962;2024-01-07T02:30:30;0.30;99.90
13336;DHT22;6737;51.480;11.962;2024-01-07T02:32:56;0.30;99.90
13336;DHT22;6737;51.480;11.962;2024-01-07T02:35:26;0.20;99.90
13336;DHT22;6737;51.480;11.962;2024-01-07T02:37:51;0.20;99.90
13336;DHT22;6737;51.480;11.962;2024-01-07T02:40:17;0.30;99.90
13336;DHT22;6737;51.480;11.962;2024-01-07T02:42:43;0.20;99.90
13336;DHT22;6737;51.480;11.962;2024-01-07T02:45:09;0.10;99.90
13336;DHT22;6737;51.480;11.962;2024-01-07T02:47:35;0.20;99.90
13336;DHT22;6737;51.480;11.962;2024-01-07T02:50:00;0.20;99.90
13336;DHT22;6737;51.480;11.962;2024-01-07T02:52:26;0.30;99.90
13336;DHT22;6737;51.480;11.962;2024-01-07T02:54:52;0.20;99.90
13336;DHT22;6737;51.480;11.962;2024-01-07T02:57:18;0.20;99.90
13336;DHT22;6737;51.480;11.962;2024-01-07T02:59:43;0.10;99.90
13336;DHT22;6737;51.480;11.962;2024-01-07T03:02:09;0.30;99.90
13336;DHT22;6737;51.480;11.962;2024-01-07T03:04:35;0.40;99.90
13336;DHT22;6737;51.480;11.962;2024-01-07T03:07:00;0.30;99.90
13336;DHT22;6737;51.480;11.962;2024-01-07T03:09:26;0.20;99.90
13336;DHT22;6737;51.480;11.962;2024-01-07T03:11:52;0.00;99.90
13336;DHT22;6737;51.480;11.962;2024-01-07T03:14:19;0.10;99.90
13336;DHT22;6737;51.480;11.962;2024-01-07T03:16:46;0.10;99.90
13336;DHT22;6737;51.480;11.962;2024-01-07T03:19:12;0.10;99.90
13336;DHT22;6737;51.480;11.962;2024-01-07T03:21:39;0.00;99.90
13336;DHT22;6737;51.480;11.962;2024-01-07T03:24:05;0.20;99.90
13336;DHT22;6737;51.480;11.962;2024-01-07T03:26:31;0.30;99.90
13336;DHT22;6737;51.480;11.962;2024-01-07T03:28:58;0.30;99.90
13336;DHT22;6737;51.480;11.962;2024-01-07T03:31:28;0.30;99.90
13336;DHT22;6737;51.480;11.962;2024-01-07T03:33:54;0.10;99.90
13336;DHT22;6737;51.480;11.962;2024-01-07T03:36:20;-0.10;99.90
13336;DHT22;6737;51.480;11.962;2024-01-07T03:38:46;-0.10;99.90
13336;DHT22;6737;51.480;11.962;2024-01-07T03:41:18;0.10;99.90
13336;DHT22;6737;51.480;11.962;2024-01-07T03:43:48;0.00;99.90
13336;DHT22;6737;51.480;11.962;2024-01-07T03:46:14;-0.10;99.90
13336;DHT22;6737;51.480;11.962;2024-01-07T03:48:42;0.00;99.90
13336;DHT22;6737;51.480;11.962;2024-01-07T03:51:07;0.00;99.90
13336;DHT22;6737;51.480;11.962;2024-01-07T03:53:33;0.00;99.90
13336;DHT22;6737;51.480;11.962;2024-01-07T03:55:59;-0.10;99.90
13336;DHT22;6737;51.480;11.962;2024-01-07T03:58:25;-0.10;99.90
13336;DHT22;6737;51.480;11.962;2024-01-07T04:00:50;0.00;99.90
13336;DHT22;6737;51.480;11.962;2024-01-07T04:03:16;0.10;99.90
13336;DHT22;6737;51.480;11.962;2024-01-07T04:05:42;0.00;99.90
13336;DHT22;6737;51.480;11.962;2024-01-07T04:08:11;-0.10;99.90
13336;DHT22;6737;51.480;11.962;2024-01-07T04:10:37;0.00;99.90
13336;DHT22;6737;51.480;11.962;2024-01-07T04:13:04;0.00;99.90
13336;DHT22;6737;51.480;11.962;2024-01-07T04:15:30;0.00;99.90
13336;DHT22;6737;51.480;11.962;2024-01-07T04:17:56;0.00;99.90
13336;DHT22;6737;51.480;11.962;2024-01-07T04:20:22;0.00;99.90
13336;DHT22;6737;51.480;11.962;2024-01-07T04:22:48;-0.10;99.90
13336;DHT22;6737;51.480;11.962;2024-01-07T04:25:13;-0.20;99.90
13336;DHT22;6737;51.480;11.962;2024-01-07T04:27:39;-0.10;99.90
13336;DHT22;6737;51.480;11.962;2024-01-07T04:30:06;-0.20;99.90
13336;DHT22;6737;51.480;11.962;2024-01-07T04:32:32;-0.20;99.90
13336;DHT22;6737;51.480;11.962;2024-01-07T04:34:59;-0.10;99.90
13336;DHT22;6737;51.480;11.962;2024-01-07T04:37:25;-0.10;99.90
13336;DHT22;6737;51.480;11.962;2024-01-07T04:39:51;-0.10;99.90
13336;DHT22;6737;51.480;11.962;2024-01-07T04:42:19;0.00;99.90
13336;DHT22;6737;51.480;11.962;2024-01-07T04:44:45;-0.10;99.90
13336;DHT22;6737;51.480;11.962;2024-01-07T04:47:27;0.00;99.90
13336;DHT22;6737;51.480;11.962;2024-01-07T04:49:54;-0.20;99.90
13336;DHT22;6737;51.480;11.962;2024-01-07T04:52:22;-0.20;99.90
13336;DHT22;6737;51.480;11.962;2024-01-07T04:54:48;-0.20;99.90
13336;DHT22;6737;51.480;11.962;2024-01-07T04:57:14;-0.20;99.90
13336;DHT22;6737;51.480;11.962;2024-01-07T04:59:40;-0.20;99.90
13336;DHT22;6737;51.480;11.962;2024-01-07T05:02:06;-0.30;99.90
13336;DHT22;6737;51.480;11.962;2024-01-07T05:04:32;-0.30;99.90
13336;DHT22;6737;51.480;11.962;2024-01-07T05:06:57;-0.20;99.90
13336;DHT22;6737;51.480;11.962;2024-01-07T05:09:23;-0.20;99.90
13336;DHT22;6737;51.480;11.962;2024-01-07T05:11:49;-0.20;99.90
13336;DHT22;6737;51.480;11.962;2024-01-07T05:14:15;-0.10;99.90
13336;DHT22;6737;51.480;11.962;2024-01-07T05:16:40;-0.20;99.90
13336;DHT22;6737;51.480;11.962;2024-01-07T05:19:06;-0.30;99.90
13336;DHT22;6737;51.480;11.962;2024-01-07T05:21:32;-0.30;99.90
13336;DHT22;6737;51.480;11.962;2024-01-07T05:23:58;-0.30;99.90
13336;DHT22;6737;51.480;11.962;2024-01-07T05:26:24;-0.30;99.90
13336;DHT22;6737;51.480;11.962;2024-01-07T05:28:49;-0.30;99.90
13336;DHT22;6737;51.480;11.962;2024-01-07T05:31:16;-0.30;99.90
13336;DHT22;6737;51.480;11.962;2024-01-07T05:33:43;-0.30;99.90
13336;DHT22;6737;51.480;11.962;2024-01-07T05:36:10;-0.20;99.90
13336;DHT22;6737;51.480;11.962;2024-01-07T05:38:35;-0.20;99.90
13336;DHT22;6737;51.480;11.962;2024-01-07T05:41:01;-0.30;99.90
13336;DHT22;6737;51.480;11.962;2024-01-07T05:43:27;-0.50;99.90
13336;DHT22;6737;51.480;11.962;2024-01-07T05:45:53;-0.40;99.90
13336;DHT22;6737;51.480;11.962;2024-01-07T05:48:21;-0.40;99.90
13336;DHT22;6737;51.480;11.962;2024-01-07T05:50:47;-0.30;99.90
13336;DHT22;6737;51.480;11.962;2024-01-07T05:53:13;-0.20;99.90
13336;DHT22;6737;51.480;11.962;2024-01-07T05:55:39;-0.30;99.90
13336;DHT22;6737;51.480;11.962;2024-01-07T05:58:05;-0.30;99.90
13336;DHT22;6737;51.480;11.962;2024-01-07T06:00:31;-0.40;99.90
13336;DHT22;6737;51.480;11.962;2024-01-07T06:02:57;-0.50;99.90
13336;DHT22;6737;51.480;11.962;2024-01-07T06:05:23;-0.60;99.90
13336;DHT22;6737;51.480;11.962;2024-01-07T06:07:49;-0.60;99.90
13336;DHT22;6737;51.480;11.962;2024-01-07T06:10:15;-0.50;99.90
13336;DHT22;6737;51.480;11.962;2024-01-07T06:12:41;-0.60;99.90
13336;DHT22;6737;51.480;11.962;2024-01-07T06:15:07;-0.50;99.90
13336;DHT22;6737;51.480;11.962;2024-01-07T06:17:33;-0.50;99.90
13336;DHT22;6737;51.480;11.962;2024-01-07T06:19:58;-0.40;99.90
13336;DHT22;6737;51.480;11.962;2024-01-07T06:22:24;-0.40;99.90
13336;DHT22;6737;51.480;11.962;2024-01-07T06:24:50;-0.40;99.90
13336;DHT22;6737;51.480;11.962;2024-01-07T06:27:16;-0.50;99.90
13336;DHT22;6737;51.480;11.962;2024-01-07T06:29:41;-0.50;99.90
13336;DHT22;6737;51.480;11.962;2024-01-07T06:32:07;-0.40;99.90
13336;DHT22;6737;51.480;11.962;2024-01-07T06:34:35;-0.40;99.90
13336;DHT22;6737;51.480;11.962;2024-01-07T06:37:01;-0.30;99.90
13336;DHT22;6737;51.480;11.962;2024-01-07T06:39:27;-0.40;99.90
13336;DHT22;6737;51.480;11.962;2024-01-07T06:41:53;-0.40;99.90
13336;DHT22;6737;51.480;11.962;2024-01-07T06:44:19;-0.50;99.90
13336;DHT22;6737;51.480;11.962;2024-01-07T06:46:45;-0.50;99.90
13336;DHT22;6737;51.480;11.962;2024-01-07T06:49:11;-0.60;99.90
13336;DHT22;6737;51.480;11.962;2024-01-07T06:51:38;-0.60;99.90
13336;DHT22;6737;51.480;11.962;2024-01-07T06:54:04;-0.70;99.90
13336;DHT22;6737;51.480;11.962;2024-01-07T06:56:30;-0.80;99.90
13336;DHT22;6737;51.480;11.962;2024-01-07T06:58:56;-0.80;99.90
13336;DHT22;6737;51.480;11.962;2024-01-07T07:01:22;-0.80;99.90
13336;DHT22;6737;51.480;11.962;2024-01-07T07:03:51;-0.80;99.90
13336;DHT22;6737;51.480;11.962;2024-01-07T07:06:17;-0.70;99.90
13336;DHT22;6737;51.480;11.962;2024-01-07T07:08:43;-0.60;99.90
13336;DHT22;6737;51.480;11.962;2024-01-07T07:11:09;-0.60;99.90
13336;DHT22;6737;51.480;11.962;2024-01-07T07:13:35;-0.70;99.90
13336;DHT22;6737;51.480;11.962;2024-01-07T07:16:00;-1.00;99.90
13336;DHT22;6737;51.480;11.962;2024-01-07T07:18:26;-0.90;99.90
13336;DHT22;6737;51.480;11.962;2024-01-07T07:20:52;-1.00;99.90
13336;DHT22;6737;51.480;11.962;2024-01-07T07:23:18;-0.90;99.90
13336;DHT22;6737;51.480;11.962;2024-01-07T07:25:44;-1.00;99.90
13336;DHT22;6737;51.480;11.962;2024-01-07T07:28:09;-1.10;99.90
13336;DHT22;6737;51.480;11.962;2024-01-07T07:30:35;-1.10;99.90
13336;DHT22;6737;51.480;11.962;2024-01-07T07:33:02;-1.00;99.90
13336;DHT22;6737;51.480;11.962;2024-01-07T07:35:28;-1.00;99.90
13336;DHT22;6737;51.480;11.962;2024-01-07T07:37:54;-1.10;99.90
13336;DHT22;6737;51.480;11.962;2024-01-07T07:40:21;-1.10;99.90
13336;DHT22;6737;51.480;11.962;2024-01-07T07:42:46;-1.20;99.90
13336;DHT22;6737;51.480;11.962;2024-01-07T07:45:12;-1.30;99.90
13336;DHT22;6737;51.480;11.962;2024-01-07T07:47:38;-1.20;99.90
13336;DHT22;6737;51.480;11.962;2024-01-07T07:50:07;-1.20;99.90
13336;DHT22;6737;51.480;11.962;2024-01-07T07:52:33;-1.20;99.90
13336;DHT22;6737;51.480;11.962;2024-01-07T07:54:59;-1.10;99.90
13336;DHT22;6737;51.480;11.962;2024-01-07T07:57:25;-1.10;99.90
13336;DHT22;6737;51.480;11.962;2024-01-07T07:59:51;-1.30;99.90
13336;DHT22;6737;51.480;11.962;2024-01-07T08:02:17;-1.40;99.90
13336;DHT22;6737;51.480;11.962;2024-01-07T08:04:43;-1.30;99.90
13336;DHT22;6737;51.480;11.962;2024-01-07T08:07:09;-1.30;99.90
13336;DHT22;6737;51.480;11.962;2024-01-07T08:09:36;-1.30;99.90
13336;DHT22;6737;51.480;11.962;2024-01-07T08:12:05;-1.40;99.90
13336;DHT22;6737;51.480;11.962;2024-01-07T08:14:32;-1.50;99.90
13336;DHT22;6737;51.480;11.962;2024-01-07T08:16:58;-1.30;99.90
13336;DHT22;6737;51.480;11.962;2024-01-07T08:19:24;-1.30;99.90
13336;DHT22;6737;51.480;11.962;2024-01-07T08:21:50;-1.30;99.90
13336;DHT22;6737;51.480;11.962;2024-01-07T08:24:16;-1.50;99.90
13336;DHT22;6737;51.480;11.962;2024-01-07T08:26:42;-1.30;99.90
13336;DHT22;6737;51.480;11.962;2024-01-07T08:29:07;-1.40;99.90
13336;DHT22;6737;51.480;11.962;2024-01-07T08:31:33;-1.50;99.90
13336;DHT22;6737;51.480;11.962;2024-01-07T08:33:59;-1.50;99.90
13336;DHT22;6737;51.480;11.962;2024-01-07T08:36:25;-1.50;99.90
13336;DHT22;6737;51.480;11.962;2024-01-07T08:38:51;-1.20;99.90
13336;DHT22;6737;51.480;11.962;2024-01-07T08:41:17;-1.40;99.90
13336;DHT22;6737;51.480;11.962;2024-01-07T08:43:43;-1.40;99.90
13336;DHT22;6737;51.480;11.962;2024-01-07T08:46:11;-1.50;99.90
13336;DHT22;6737;51.480;11.962;2024-01-07T08:48:39;-1.60;99.90
13336;DHT22;6737;51.480;11.962;2024-01-07T08:51:05;-1.50;99.90
13336;DHT22;6737;51.480;11.962;2024-01-07T08:53:31;-1.40;99.90
13336;DHT22;6737;51.480;11.962;2024-01-07T08:55:57;-1.50;99.90
13336;DHT22;6737;51.480;11.962;2024-01-07T08:58:23;-1.50;99.90
13336;DHT22;6737;51.480;11.962;2024-01-07T09:00:49;-1.60;99.90
13336;DHT22;6737;51.480;11.962;2024-01-07T09:03:15;-1.60;99.90
13336;DHT22;6737;51.480;11.962;2024-01-07T09:05:41;-1.60;99.90
13336;DHT22;6737;51.480;11.962;2024-01-07T09:08:06;-1.70;99.90
13336;DHT22;6737;51.480;11.962;2024-01-07T09:10:32;-1.40;99.90
13336;DHT22;6737;51.480;11.962;2024-01-07T09:12:59;-1.50;99.90
13336;DHT22;6737;51.480;11.962;2024-01-07T09:15:25;-1.50;99.90
13336;DHT22;6737;51.480;11.962;2024-01-07T09:17:51;-1.40;99.90
13336;DHT22;6737;51.480;11.962;2024-01-07T09:20:17;-1.30;99.90
13336;DHT22;6737;51.480;11.962;2024-01-07T09:22:43;-1.30;99.90
13336;DHT22;6737;51.480;11.962;2024-01-07T09:25:09;-1.40;99.90
13336;DHT22;6737;51.480;11.962;2024-01-07T09:27:35;-1.30;99.90
13336;DHT22;6737;51.480;11.962;2024-01-07T09:30:01;-1.10;99.90
13336;DHT22;6737;51.480;11.962;2024-01-07T09:32:27;-1.20;99.90
13336;DHT22;6737;51.480;11.962;2024-01-07T09:34:53;-1.10;99.90
13336;DHT22;6737;51.480;11.962;2024-01-07T09:37:19;-1.40;99.90
13336;DHT22;6737;51.480;11.962;2024-01-07T09:39:45;-1.30;99.90
13336;DHT22;6737;51.480;11.962;2024-01-07T09:42:15;-1.40;99.90
13336;DHT22;6737;51.480;11.962;2024-01-07T09:44:44;-1.30;99.90
13336;DHT22;6737;51.480;11.962;2024-01-07T09:47:12;-1.10;99.90
13336;DHT22;6737;51.480;11.962;2024-01-07T09:49:39;-1.30;99.90
13336;DHT22;6737;51.480;11.962;2024-01-07T09:52:05;-1.40;99.90
13336;DHT22;6737;51.480;11.962;2024-01-07T09:54:31;-1.10;99.90
13336;DHT22;6737;51.480;11.962;2024-01-07T09:57:02;-1.10;99.90
13336;DHT22;6737;51.480;11.962;2024-01-07T09:59:29;-1.30;99.90
13336;DHT22;6737;51.480;11.962;2024-01-07T10:01:56;-1.30;99.90
13336;DHT22;6737;51.480;11.962;2024-01-07T10:04:26;-1.20;99.90
13336;DHT22;6737;51.480;11.962;2024-01-07T10:06:53;-1.20;99.90
13336;DHT22;6737;51.480;11.962;2024-01-07T10:09:23;-1.00;99.90
13336;DHT22;6737;51.480;11.962;2024-01-07T10:11:50;-0.90;99.90
13336;DHT22;6737;51.480;11.962;2024-01-07T10:14:16;-0.80;99.90
13336;DHT22;6737;51.480;11.962;2024-01-07T10:16:42;-1.00;99.90
13336;DHT22;6737;51.480;11.962;2024-01-07T10:19:08;-0.90;99.90
13336;DHT22;6737;51.480;11.962;2024-01-07T10:21:34;-0.90;99.90
13336;DHT22;6737;51.480;11.962;2024-01-07T10:24:10;-0.90;99.90
13336;DHT22;6737;51.480;11.962;2024-01-07T10:26:37;-1.00;99.90
13336;DHT22;6737;51.480;11.962;2024-01-07T10:29:04;-0.90;99.90
13336;DHT22;6737;51.480;11.962;2024-01-07T10:31:32;-1.10;99.90
13336;DHT22;6737;51.480;11.962;2024-01-07T10:33:58;-1.00;99.90
13336;DHT22;6737;51.480;11.962;2024-01-07T10:36:24;-1.10;99.90
13336;DHT22;6737;51.480;11.962;2024-01-07T10:38:51;-1.00;99.90
13336;DHT22;6737;51.480;11.962;2024-01-07T10:41:18;-0.90;99.90
13336;DHT22;6737;51.480;11.962;2024-01-07T10:43:48;-0.60;99.90
13336;DHT22;6737;51.480;11.962;2024-01-07T10:46:15;-0.60;99.90
13336;DHT22;6737;51.480;11.962;2024-01-07T10:49:02;-0.60;99.90
13336;DHT22;6737;51.480;11.962;2024-01-07T10:51:33;-0.50;99.90
13336;DHT22;6737;51.480;11.962;2024-01-07T10:54:00;-0.60;99.90
13336;DHT22;6737;51.480;11.962;2024-01-07T10:56:43;-0.80;99.90
13336;DHT22;6737;51.480;11.962;2024-01-07T10:59:11;-0.70;99.90
13336;DHT22;6737;51.480;11.962;2024-01-07T11:01:37;-0.80;99.90
13336;DHT22;6737;51.480;11.962;2024-01-07T11:04:15;-0.80;99.90
13336;DHT22;6737;51.480;11.962;2024-01-07T11:06:55;-0.80;99.90
13336;DHT22;6737;51.480;11.962;2024-01-07T11:10:04;-0.80;99.90
13336;DHT22;6737;51.480;11.962;2024-01-07T11:12:32;-0.80;99.90
13336;DHT22;6737;51.480;11.962;2024-01-07T11:14:59;-0.80;99.90
13336;DHT22;6737;51.480;11.962;2024-01-07T11:17:40;-0.80;99.90
13336;DHT22;6737;51.480;11.962;2024-01-07T11:20:19;-0.90;99.90
13336;DHT22;6737;51.480;11.962;2024-01-07T11:22:46;-0.90;99.90
13336;DHT22;6737;51.480;11.962;2024-01-07T11:25:29;-0.80;99.90
13336;DHT22;6737;51.480;11.962;2024-01-07T11:27:57;-0.80;99.90
13336;DHT22;6737;51.480;11.962;2024-01-07T11:30:25;-0.70;99.90
13336;DHT22;6737;51.480;11.962;2024-01-07T11:33:01;-0.80;99.90
13336;DHT22;6737;51.480;11.962;2024-01-07T11:35:54;-0.70;99.90
13336;DHT22;6737;51.480;11.962;2024-01-07T11:38:22;-0.70;99.90
13336;DHT22;6737;51.480;11.962;2024-01-07T11:40:49;-0.60;99.90
13336;DHT22;6737;51.480;11.962;2024-01-07T11:43:15;-0.50;99.90
13336;DHT22;6737;51.480;11.962;2024-01-07T11:45:41;-0.60;99.90
13336;DHT22;6737;51.480;11.962;2024-01-07T11:48:07;-0.80;99.90
13336;DHT22;6737;51.480;11.962;2024-01-07T11:50:35;-0.80;99.90
13336;DHT22;6737;51.480;11.962;2024-01-07T11:53:01;-0.70;99.90
13336;DHT22;6737;51.480;11.962;2024-01-07T11:55:27;-0.80;99.90
13336;DHT22;6737;51.480;11.962;2024-01-07T11:57:55;-0.80;99.90
13336;DHT22;6737;51.480;11.962;2024-01-07T12:00:21;-0.70;99.90
13336;DHT22;6737;51.480;11.962;2024-01-07T12:02:47;-0.70;99.90
13336;DHT22;6737;51.480;11.962;2024-01-07T12:05:13;-0.50;99.90
13336;DHT22;6737;51.480;11.962;2024-01-07T12:07:41;-0.60;99.90
13336;DHT22;6737;51.480;11.962;2024-01-07T12:10:08;-0.50;99.90
13336;DHT22;6737;51.480;11.962;2024-01-07T12:12:39;-0.50;99.90
13336;DHT22;6737;51.480;11.962;2024-01-07T12:15:07;-0.60;99.90
13336;DHT22;6737;51.480;11.962;2024-01-07T12:17:33;-0.60;99.90
13336;DHT22;6737;51.480;11.962;2024-01-07T12:20:00;-0.60;99.90
13336;DHT22;6737;51.480;11.962;2024-01-07T12:22:29;-0.40;99.90
13336;DHT22;6737;51.480;11.962;2024-01-07T12:25:06;-0.40;99.90
13336;DHT22;6737;51.480;11.962;2024-01-07T12:27:33;-0.40;99.90
13336;DHT22;6737;51.480;11.962;2024-01-07T12:29:59;-0.50;99.90
13336;DHT22;6737;51.480;11.962;2024-01-07T12:32:30;-0.40;99.90
13336;DHT22;6737;51.480;11.962;2024-01-07T12:34:59;-0.40;99.90
13336;DHT22;6737;51.480;11.962;2024-01-07T12:37:27;-0.20;99.90
13336;DHT22;6737;51.480;11.962;2024-01-07T12:39:54;-0.20;99.90
13336;DHT22;6737;51.480;11.962;2024-01-07T12:42:19;-0.30;99.90
13336;DHT22;6737;51.480;11.962;2024-01-07T12:44:49;-0.20;99.90
13336;DHT22;6737;51.480;11.962;2024-01-07T12:47:16;-0.20;99.90
13336;DHT22;6737;51.480;11.962;2024-01-07T12:49:42;-0.10;99.90
13336;DHT22;6737;51.480;11.962;2024-01-07T12:52:08;-0.10;99.90
13336;DHT22;6737;51.480;11.962;2024-01-07T12:54:35;-0.10;99.90
13336;DHT22;6737;51.480;11.962;2024-01-07T12:57:01;-0.20;99.90
13336;DHT22;6737;51.480;11.962;2024-01-07T12:59:26;-0.10;99.90
13336;DHT22;6737;51.480;11.962;2024-01-07T13:01:52;-0.10;99.90
13336;DHT22;6737;51.480;11.962;2024-01-07T13:04:19;-0.10;99.90
13336;DHT22;6737;51.480;11.962;2024-01-07T13:06:45;0.00;99.90
13336;DHT22;6737;51.480;11.962;2024-01-07T13:09:11;0.10;99.90
13336;DHT22;6737;51.480;11.962;2024-01-07T13:11:37;0.10;99.90
13336;DHT22;6737;51.480;11.962;2024-01-07T13:14:03;0.10;99.90
13336;DHT22;6737;51.480;11.962;2024-01-07T13:16:29;-0.10;99.90
13336;DHT22;6737;51.480;11.962;2024-01-07T13:18:55;-0.10;99.90
13336;DHT22;6737;51.480;11.962;2024-01-07T13:21:21;0.00;99.90
13336;DHT22;6737;51.480;11.962;2024-01-07T13:23:47;0.00;99.90
13336;DHT22;6737;51.480;11.962;2024-01-07T13:26:14;-0.10;99.90
13336;DHT22;6737;51.480;11.962;2024-01-07T13:28:40;-0.10;99.90
13336;DHT22;6737;51.480;11.962;2024-01-07T13:31:07;0.00;99.90
13336;DHT22;6737;51.480;11.962;2024-01-07T13:33:34;0.00;99.90
13336;DHT22;6737;51.480;11.962;2024-01-07T13:36:01;-0.10;99.90
13336;DHT22;6737;51.480;11.962;2024-01-07T13:38:28;-0.10;99.90
13336;DHT22;6737;51.480;11.962;2024-01-07T13:40:54;-0.10;99.90
13336;DHT22;6737;51.480;11.962;2024-01-07T13:43:20;-0.10;99.90
13336;DHT22;6737;51.480;11.962;2024-01-07T13:45:45;-0.10;99.90
13336;DHT22;6737;51.480;11.962;2024-01-07T13:48:11;-0.10;99.90
13336;DHT22;6737;51.480;11.962;2024-01-07T13:50:40;-0.20;99.90
13336;DHT22;6737;51.480;11.962;2024-01-07T13:53:06;-0.20;99.90
13336;DHT22;6737;51.480;11.962;2024-01-07T13:55:31;-0.20;99.90
13336;DHT22;6737;51.480;11.962;2024-01-07T13:57:57;-0.10;99.90
13336;DHT22;6737;51.480;11.962;2024-01-07T14:00:24;-0.20;99.90
13336;DHT22;6737;51.480;11.962;2024-01-07T14:02:50;-0.30;99.90
13336;DHT22;6737;51.480;11.962;2024-01-07T14:05:16;-0.30;99.90
13336;DHT22;6737;51.480;11.962;2024-01-07T14:07:41;-0.30;99.90
13336;DHT22;6737;51.480;11.962;2024-01-07T14:10:07;-0.50;99.90
13336;DHT22;6737;51.480;11.962;2024-01-07T14:12:34;-0.50;99.90
13336;DHT22;6737;51.480;11.962;2024-01-07T14:15:00;-0.50;99.90
13336;DHT22;6737;51.480;11.962;2024-01-07T14:17:26;-0.50;99.90
13336;DHT22;6737;51.480;11.962;2024-01-07T14:19:52;-0.50;99.90
13336;DHT22;6737;51.480;11.962;2024-01-07T14:22:22;-0.50;99.90
13336;DHT22;6737;51.480;11.962;2024-01-07T14:24:49;-0.40;99.90
13336;DHT22;6737;51.480;11.962;2024-01-07T14:27:18;-0.30;99.90
13336;DHT22;6737;51.480;11.962;2024-01-07T14:29:44;-0.40;99.90
13336;DHT22;6737;51.480;11.962;2024-01-07T14:32:11;-0.50;99.90
13336;DHT22;6737;51.480;11.962;2024-01-07T14:34:40;-0.50;99.90
13336;DHT22;6737;51.480;11.962;2024-01-07T14:37:08;-0.60;99.90
13336;DHT22;6737;51.480;11.962;2024-01-07T14:39:36;-0.50;99.90
13336;DHT22;6737;51.480;11.962;2024-01-07T14:42:02;-0.50;99.90
13336;DHT22;6737;51.480;11.962;2024-01-07T14:44:29;-0.70;99.90
13336;DHT22;6737;51.480;11.962;2024-01-07T14:46:55;-0.70;99.90
13336;DHT22;6737;51.480;11.962;2024-01-07T14:49:21;-0.60;99.90
13336;DHT22;6737;51.480;11.962;2024-01-07T14:51:47;-0.70;99.90
13336;DHT22;6737;51.480;11.962;2024-01-07T14:54:13;-0.60;99.90
13336;DHT22;6737;51.480;11.962;2024-01-07T14:56:39;-0.60;99.90
13336;DHT22;6737;51.480;11.962;2024-01-07T14:59:05;-0.70;99.90
13336;DHT22;6737;51.480;11.962;2024-01-07T15:01:31;-0.70;99.90
13336;DHT22;6737;51.480;11.962;2024-01-07T15:03:57;-0.80;99.90
13336;DHT22;6737;51.480;11.962;2024-01-07T15:06:22;-0.80;99.90
13336;DHT22;6737;51.480;11.962;2024-01-07T15:08:49;-0.80;99.90
13336;DHT22;6737;51.480;11.962;2024-01-07T15:11:16;-0.70;99.90
13336;DHT22;6737;51.480;11.962;2024-01-07T15:13:43;-0.60;99.90
13336;DHT22;6737;51.480;11.962;2024-01-07T15:16:09;-0.60;99.90
13336;DHT22;6737;51.480;11.962;2024-01-07T15:18:35;-0.60;99.90
13336;DHT22;6737;51.480;11.962;2024-01-07T15:21:02;-0.60;99.90
13336;DHT22;6737;51.480;11.962;2024-01-07T15:23:28;-0.60;99.90
13336;DHT22;6737;51.480;11.962;2024-01-07T15:25:54;-0.70;99.90
13336;DHT22;6737;51.480;11.962;2024-01-07T15:28:20;-0.70;99.90
13336;DHT22;6737;51.480;11.962;2024-01-07T15:30:46;-0.70;99.90
13336;DHT22;6737;51.480;11.962;2024-01-07T15:33:13;-0.60;99.90